Time;durP1;ratioP1;P1;durP2;ratioP2;P2;SDS_P1;SDS_P2;PMS_P1;PMS_P2;Temp;Humidity;BMP_temperature;BMP_pressure;BME280_temperature;BME280_humidity;BME280_pressure;Samples;Min_cycle;Max_cycle;Signal;HPM_P1;HPM_P2
2021/11/12 00:12:26;;;;;;;3.65;3.45;;;;;;;1.57;82.14;99741.16;6332523;22;20054;-72
2021/11/12 00:14:54;;;;;;;3.53;2.75;;;;;;;1.56;81.95;99741.22;6330968;22;20029;-71
2021/11/12 00:17:23;;;;;;;6.65;2.42;;;;;;;1.51;81.87;99735.28;6332190;22;20085;-72
2021/11/12 00:19:50;;;;;;;4.20;3.95;;;;;;;1.51;82.07;99736.16;6332211;22;20019;-72
2021/11/12 00:22:16;;;;;;;3.78;3.38;;;;;;;1.52;82.51;99740.41;6332469;22;20089;-71
2021/11/12 00:24:42;;;;;;;3.30;2.15;;;;;;;1.50;82.96;99729.31;6331215;22;20021;-71
2021/11/12 00:27:08;;;;;;;3.72;3.42;;;;;;;1.48;82.98;99730.22;6333917;22;20014;-69
2021/11/12 00:32:40;;;;;;;9.05;4.80;;;;;;;1.58;82.80;99706.00;6296983;22;20022;-72
2021/11/12 00:35:25;;;;;;;2.65;2.38;;;;;;;1.56;83.02;99710.34;6332273;22;20495;-71
2021/11/12 00:40:20;;;;;;;3.00;2.80;;;;;;;1.49;84.03;99698.47;6332548;22;20018;-72
2021/11/12 00:45:24;;;;;;;2.55;2.45;;;;;;;1.49;82.78;99668.47;6332010;22;20068;-70
2021/11/12 00:47:56;;;;;;;3.95;3.65;;;;;;;1.55;82.45;99678.63;6278611;22;20023;-70
2021/11/12 00:55:14;;;;;;;2.83;2.72;;;;;;;1.60;81.30;99646.81;6330148;22;20072;-70
2021/11/12 00:57:41;;;;;;;2.17;2.08;;;;;;;1.58;81.41;99649.41;6332202;22;20015;-71
2021/11/12 01:00:07;;;;;;;2.55;2.45;;;;;;;1.54;81.89;99637.50;6331926;22;20362;-71
2021/11/12 01:02:34;;;;;;;6.25;4.93;;;;;;;1.55;81.37;99628.91;6304601;22;20015;-71
2021/11/12 01:05:00;;;;;;;3.78;2.42;;;;;;;1.52;80.76;99618.69;6332043;22;20025;-71
2021/11/12 01:07:27;;;;;;;4.40;4.20;;;;;;;1.55;80.55;99623.75;6330202;22;20022;-70
2021/11/12 01:09:53;;;;;;;3.15;3.00;;;;;;;1.54;80.81;99606.63;6332069;22;20019;-71
2021/11/12 01:12:19;;;;;;;3.40;3.20;;;;;;;1.54;80.72;99596.34;6331860;22;20106;-72
2021/11/12 01:14:45;;;;;;;2.60;2.50;;;;;;;1.56;80.41;99594.59;6330579;22;20094;-72
2021/11/12 01:17:11;;;;;;;3.53;3.33;;;;;;;1.56;80.55;99599.75;6332067;22;20014;-71
2021/11/12 01:19:37;;;;;;;3.47;3.28;;;;;;;1.50;81.16;99594.75;6331959;22;20026;-72
2021/11/12 01:22:04;;;;;;;10.48;4.50;;;;;;;1.51;80.93;99598.97;6332172;22;20025;-71
2021/11/12 01:24:31;;;;;;;2.78;2.67;;;;;;;1.48;80.54;99576.75;6331713;22;20015;-70
2021/11/12 01:26:57;;;;;;;3.58;3.38;;;;;;;1.51;80.24;99565.53;6330558;22;20023;-71
2021/11/12 01:29:23;;;;;;;4.82;4.32;;;;;;;1.53;80.27;99579.22;6330064;22;20015;-69
2021/11/12 01:31:49;;;;;;;5.88;4.25;;;;;;;1.51;79.97;99568.13;6331786;22;20019;-70
2021/11/12 01:34:15;;;;;;;3.72;3.53;;;;;;;1.52;79.50;99572.38;6329897;22;20027;-70
2021/11/12 01:36:44;;;;;;;2.53;2.42;;;;;;;1.51;79.59;99570.69;6329804;22;20015;-71
2021/11/12 01:39:15;;;;;;;3.53;3.33;;;;;;;1.52;79.92;99567.25;6331788;22;20026;-71
2021/11/12 01:41:47;;;;;;;5.85;5.45;;;;;;;1.49;79.95;99549.31;6330387;22;20018;-72
2021/11/12 01:44:14;;;;;;;5.72;5.18;;;;;;;1.45;80.00;99540.81;6331415;22;20513;-70
2021/11/12 01:52:16;;;;;;;3.85;3.30;;;;;;;1.46;78.76;99536.53;6262639;22;20080;-70
2021/11/12 01:59:57;;;;;;;6.15;5.55;;;;;;;1.43;78.97;99521.19;6331763;22;20057;-71
2021/11/12 02:02:25;;;;;;;2.13;2.03;;;;;;;1.45;77.42;99519.41;6331501;22;20487;-72
2021/11/12 02:04:54;;;;;;;5.65;5.15;;;;;;;1.44;77.36;99513.41;6331835;22;20018;-71
2021/11/12 02:07:21;;;;;;;2.60;2.42;;;;;;;1.42;78.13;99504.03;6332138;22;20021;-71
2021/11/12 02:09:47;;;;;;;4.70;4.30;;;;;;;1.42;78.38;99496.34;6333307;22;20362;-72
2021/11/12 02:12:32;;;;;;;4.85;3.45;;;;;;;1.37;78.01;99481.03;6331942;22;20015;-71
2021/11/12 02:15:00;;;;;;;4.25;3.45;;;;;;;1.39;77.88;99488.69;6331720;22;20011;-71
2021/11/12 02:17:33;;;;;;;3.30;3.10;;;;;;;1.41;77.67;99498.06;6333156;22;20493;-72
2021/11/12 02:20:06;;;;;;;13.40;3.20;;;;;;;1.42;77.46;99494.59;6331525;22;20075;-71
2021/11/12 02:22:33;;;;;;;1.15;1.15;;;;;;;1.43;77.21;99490.31;6333276;22;20105;-72
2021/11/12 02:25:21;;;;;;;1.73;1.67;;;;;;;1.43;77.43;99477.47;6331587;22;20458;-72
2021/11/12 02:28:00;;;;;;;5.10;2.80;;;;;;;1.44;77.46;99468.88;6333206;22;20014;-71
2021/11/12 02:30:28;;;;;;;1.08;1.02;;;;;;;1.38;77.08;99463.84;6331417;22;20022;-72
2021/11/12 02:33:12;;;;;;;3.45;3.30;;;;;;;1.33;78.83;99460.56;6333252;22;20458;-72
2021/11/12 02:35:43;;;;;;;1.50;1.50;;;;;;;1.32;78.85;99458.88;6332805;22;20462;-70
2021/11/12 02:38:09;;;;;;;2.42;2.33;;;;;;;1.24;78.33;99433.34;6333208;22;20050;-71
2021/11/12 02:40:36;;;;;;;5.80;4.57;;;;;;;1.29;79.04;99431.50;6330936;22;20023;-72
2021/11/12 02:43:02;;;;;;;2.90;2.80;;;;;;;1.26;79.54;99420.44;6331499;22;20096;-71
2021/11/12 02:45:29;;;;;;;1.98;1.92;;;;;;;1.22;79.93;99434.25;6332795;22;20021;-71
2021/11/12 02:47:55;;;;;;;2.85;2.67;;;;;;;1.18;80.69;99435.22;6331552;22;20018;-72
2021/11/12 02:50:22;;;;;;;1.80;1.80;;;;;;;1.14;80.34;99428.47;6332402;22;20019;-70
2021/11/12 02:52:55;;;;;;;3.10;2.90;;;;;;;1.13;81.13;99430.19;6333159;22;20042;-71
2021/11/12 02:55:21;;;;;;;2.25;2.15;;;;;;;1.09;81.31;99426.00;6332796;22;20022;-69
2021/11/12 02:57:47;;;;;;;2.00;1.90;;;;;;;0.98;82.31;99410.81;6333127;22;20018;-71
2021/11/12 03:00:15;;;;;;;2.42;2.33;;;;;;;1.01;82.27;99420.22;6332667;22;20027;-70
2021/11/12 03:02:41;;;;;;;4.35;3.97;;;;;;;1.00;82.32;99421.06;6332674;22;20025;-72
2021/11/12 03:05:07;;;;;;;4.43;4.10;;;;;;;0.95;83.01;99416.03;6333108;22;20402;-71
2021/11/12 03:07:33;;;;;;;3.35;3.15;;;;;;;0.93;83.63;99417.81;6332540;22;20034;-71
2021/11/12 03:09:59;;;;;;;3.20;3.00;;;;;;;0.90;83.60;99411.88;6332744;22;20030;-71
2021/11/12 03:12:26;;;;;;;7.20;3.45;;;;;;;0.84;84.08;99402.63;6330985;22;20072;-71
2021/11/12 03:14:52;;;;;;;6.18;5.60;;;;;;;0.83;83.87;99394.91;6332785;22;20021;-71
2021/11/12 03:17:18;;;;;;;5.25;4.82;;;;;;;0.83;84.21;99382.94;6332883;22;20015;-71
2021/11/12 03:19:45;;;;;;;3.67;3.40;;;;;;;0.80;84.21;99385.56;6331053;22;20026;-70
2021/11/12 03:22:15;;;;;;;6.30;3.88;;;;;;;0.76;85.03;99383.09;6332948;22;20417;-71
2021/11/12 03:24:58;;;;;;;3.10;3.00;;;;;;;0.71;85.45;99387.50;6330917;22;20541;-71
2021/11/12 03:27:38;;;;;;;5.35;3.40;;;;;;;0.65;85.98;99385.94;6332665;22;20517;-72
2021/11/12 03:49:54;;;;;;;3.53;3.00;;;;;;;0.38;90.48;99332.63;6332932;22;20018;-71
2021/11/12 04:00:40;;;;;;;3.50;2.58;;;;;;;0.35;91.39;99301.91;6330997;22;20049;-70
2021/11/12 04:49:40;;;;;;;2.17;2.10;;;;;;;0.30;91.72;99188.22;6333773;22;20019;-73
2021/11/12 05:25:27;;;;;;;4.97;4.53;;;;;;;0.33;91.30;99131.66;6333211;22;20015;-74
2021/11/12 05:44:28;;;;;;;4.80;4.47;;;;;;;0.35;91.73;99083.72;6331601;22;20045;-74
2021/11/12 05:52:13;;;;;;;3.75;3.40;;;;;;;0.35;92.34;99074.31;6331877;22;20072;-74
2021/11/12 05:57:24;;;;;;;6.13;5.28;;;;;;;0.34;92.76;99058.94;6331591;22;20064;-74
2021/11/12 05:59:50;;;;;;;6.50;6.00;;;;;;;0.33;92.96;99049.53;6331440;22;20106;-74
2021/11/12 06:02:16;;;;;;;7.63;6.82;;;;;;;0.35;93.20;99047.78;6334000;22;20019;-75
2021/11/12 06:04:43;;;;;;;4.55;3.55;;;;;;;0.35;92.81;99042.66;6332423;22;20018;-74
2021/11/12 06:07:09;;;;;;;6.40;5.55;;;;;;;0.30;93.42;99035.06;6332174;22;20018;-74
2021/11/12 06:09:36;;;;;;;10.52;5.63;;;;;;;0.30;93.91;99041.91;6333116;22;20041;-75
2021/11/12 06:12:02;;;;;;;8.10;3.85;;;;;;;0.28;94.16;99020.59;6306188;22;20025;-73
2021/11/12 06:14:29;;;;;;;6.43;4.15;;;;;;;0.30;94.05;99022.25;6330940;22;20511;-74
2021/11/12 06:16:55;;;;;;;6.40;5.68;;;;;;;0.29;93.79;99024.88;6331564;22;20023;-71
2021/11/12 06:19:22;;;;;;;7.45;5.97;;;;;;;0.29;93.72;99027.44;6331605;22;20590;-73
2021/11/12 06:21:48;;;;;;;3.00;2.85;;;;;;;0.31;94.36;99038.47;6332650;22;20019;-75
2021/11/12 06:24:15;;;;;;;2.75;2.60;;;;;;;0.31;94.49;99030.78;6331266;22;20015;-74
2021/11/12 06:26:42;;;;;;;5.82;4.63;;;;;;;0.31;94.53;99033.34;6305006;22;20019;-72
2021/11/12 06:29:08;;;;;;;8.57;7.68;;;;;;;0.30;94.51;99026.53;6305495;22;20657;-73
2021/11/12 06:31:34;;;;;;;5.55;5.10;;;;;;;0.29;94.73;99019.72;6331357;22;20148;-73
2021/11/12 06:34:00;;;;;;;3.65;3.42;;;;;;;0.31;95.50;99016.22;6331298;22;20111;-72
2021/11/12 06:36:26;;;;;;;9.63;6.85;;;;;;;0.31;95.07;99015.38;6332896;22;20019;-73
2021/11/12 06:38:53;;;;;;;6.13;5.53;;;;;;;0.30;95.26;99008.56;6304735;22;20025;-74
2021/11/12 06:41:38;;;;;;;2.70;2.60;;;;;;;0.27;95.42;99003.50;6331788;22;20023;-74
2021/11/12 06:44:26;;;;;;;6.45;5.95;;;;;;;0.30;95.58;99008.56;6332610;22;20018;-73
2021/11/12 06:49:51;;;;;;;5.50;4.50;;;;;;;0.33;95.61;99003.34;6331137;22;20022;-73
2021/11/12 06:52:18;;;;;;;6.85;5.93;;;;;;;0.30;95.70;98982.91;6331279;22;20339;-72
2021/11/12 06:54:45;;;;;;;9.38;7.47;;;;;;;0.36;95.59;98993.03;6332018;22;20026;-72
2021/11/12 06:57:13;;;;;;;18.92;9.27;;;;;;;0.34;95.34;98985.34;6330775;22;20019;-72
2021/11/12 06:59:40;;;;;;;6.97;6.18;;;;;;;0.37;95.03;98997.25;6305085;22;20641;-72
2021/11/12 07:02:07;;;;;;;12.10;5.18;;;;;;;0.37;95.66;98984.41;6330892;22;20374;-73
2021/11/12 07:04:33;;;;;;;4.18;3.90;;;;;;;0.40;95.43;98989.47;6331940;22;20105;-72
2021/11/12 07:07:00;;;;;;;5.63;4.30;;;;;;;0.41;94.81;98988.59;6330687;22;20050;-73
2021/11/12 07:09:27;;;;;;;6.07;5.68;;;;;;;0.40;95.27;98989.47;6332163;22;20015;-72
2021/11/12 07:11:54;;;;;;;6.82;4.07;;;;;;;0.40;95.72;98974.06;6330967;22;20023;-73
2021/11/12 07:14:20;;;;;;;2.88;2.78;;;;;;;0.42;95.52;98972.31;6304372;22;20488;-73
2021/11/12 07:16:47;;;;;;;8.65;4.38;;;;;;;0.45;95.55;98969.66;6330143;22;20128;-73
2021/11/12 07:19:13;;;;;;;9.25;5.28;;;;;;;0.44;95.36;98968.81;6332122;22;20131;-73
2021/11/12 07:21:39;;;;;;;10.80;8.07;;;;;;;0.46;95.16;98971.31;6330535;22;20272;-73
2021/11/12 07:24:06;;;;;;;6.28;5.25;;;;;;;0.45;95.56;98964.53;6331598;22;20022;-74
2021/11/12 07:26:32;;;;;;;4.55;4.25;;;;;;;0.48;95.45;98956.72;6330127;22;20094;-74
2021/11/12 07:28:59;;;;;;;7.25;4.13;;;;;;;0.52;95.11;98950.63;6332171;22;20118;-73
2021/11/12 07:31:25;;;;;;;5.65;5.13;;;;;;;0.53;95.09;98948.00;6332103;22;20019;-73
2021/11/12 07:33:53;;;;;;;5.32;4.38;;;;;;;0.54;95.34;98941.16;6330728;22;20097;-71
2021/11/12 07:36:23;;;;;;;9.38;7.90;;;;;;;0.57;95.54;98935.06;6330134;22;20025;-71
2021/11/12 07:38:52;;;;;;;2.20;2.20;;;;;;;0.55;95.65;98937.69;6331880;22;20026;-71
2021/11/12 07:44:21;;;;;;;3.30;3.10;;;;;;;0.57;95.88;98919.66;6333039;22;20019;-71
2021/11/12 07:47:09;;;;;;;11.73;7.38;;;;;;;0.57;95.93;98902.53;6333971;22;20426;-74
2021/11/12 07:49:37;;;;;;;4.82;4.53;;;;;;;0.58;96.16;98911.94;6330575;22;20050;-73
2021/11/12 07:52:12;;;;;;;2.80;2.70;;;;;;;0.63;96.32;98904.91;6329069;22;20026;-74
2021/11/12 07:54:39;;;;;;;8.55;6.03;;;;;;;0.63;96.04;98904.91;6328353;22;20028;-72
2021/11/12 07:57:06;;;;;;;6.75;5.80;;;;;;;0.64;96.12;98896.34;6330686;22;20578;-73
2021/11/12 07:59:32;;;;;;;3.17;2.97;;;;;;;0.68;96.17;98897.94;6332621;22;20157;-73
2021/11/12 08:01:58;;;;;;;2.90;1.95;;;;;;;0.68;95.71;98892.78;6328331;22;20069;-73
2021/11/12 08:04:25;;;;;;;2.42;1.65;;;;;;;0.69;95.82;98891.88;6330802;22;20067;-73
2021/11/12 08:06:55;;;;;;;4.15;3.83;;;;;;;0.73;95.60;98888.34;6331055;22;20023;-72
2021/11/12 08:09:25;;;;;;;1.85;1.75;;;;;;;0.72;95.81;98883.28;6332036;22;20083;-73
2021/11/12 08:11:55;;;;;;;3.15;2.05;;;;;;;0.77;95.84;98886.53;6331841;22;20025;-73
2021/11/12 08:19:28;;;;;;;3.92;3.63;;;;;;;0.88;95.33;98877.59;6329272;22;20075;-73
2021/11/12 08:22:02;;;;;;;10.10;4.00;;;;;;;0.91;95.00;98874.09;6331977;22;20014;-73
2021/11/12 08:24:37;;;;;;;0.90;0.90;;;;;;;0.95;94.21;98880.78;6330418;22;20015;-73
2021/11/12 08:30:42;;;;;;;2.70;2.58;;;;;;;0.97;94.95;98871.34;6331076;22;20476;-73
2021/11/12 08:32:48;;;;;;;1.88;1.77;;;;;;;1.02;94.69;98872.84;6282286;22;20540;-73
2021/11/12 08:48:38;;;;;;;3.55;3.45;;;;;;;1.12;95.11;98839.16;6305639;22;20027;-72
2021/11/12 08:51:07;;;;;;;3.60;2.03;;;;;;;1.17;95.12;98837.28;6331447;22;20681;-73
2021/11/12 08:53:34;;;;;;;13.80;5.60;;;;;;;1.23;95.05;98839.63;6329721;22;20022;-73
2021/11/12 08:56:00;;;;;;;3.13;2.42;;;;;;;1.21;95.23;98837.09;6303989;22;20019;-72
2021/11/12 08:58:27;;;;;;;3.53;3.28;;;;;;;1.28;95.49;98837.72;6330995;22;20042;-72
2021/11/12 09:00:59;;;;;;;2.08;2.08;;;;;;;1.30;95.79;98828.25;6331277;22;20022;-74
2021/11/12 09:03:25;;;;;;;5.57;3.90;;;;;;;1.30;95.87;98833.41;6329580;22;20060;-74
2021/11/12 09:05:51;;;;;;;4.63;2.03;;;;;;;1.32;95.69;98829.03;6331621;22;20015;-73
2021/11/12 09:08:21;;;;;;;4.32;1.67;;;;;;;1.32;95.75;98818.75;6331214;22;20033;-73
2021/11/12 09:10:47;;;;;;;0.98;0.98;;;;;;;1.36;95.66;98820.34;6305767;22;20019;-73
2021/11/12 09:13:20;;;;;;;1.38;1.38;;;;;;;1.42;95.75;98825.25;6329592;22;20015;-73
2021/11/12 09:15:54;;;;;;;1.00;1.00;;;;;;;1.45;95.37;98825.16;6329327;22;20021;-73
2021/11/12 09:18:22;;;;;;;2.22;2.22;;;;;;;1.49;95.59;98821.59;6329205;22;20025;-73
2021/11/12 09:20:49;;;;;;;1.38;1.38;;;;;;;1.50;95.64;98829.25;6329101;22;20015;-72
2021/11/12 09:23:15;;;;;;;1.80;1.80;;;;;;;1.53;95.99;98824.00;6327708;22;20500;-73
2021/11/12 09:25:42;;;;;;;1.23;1.23;;;;;;;1.60;95.67;98814.34;6327950;22;20109;-73
2021/11/12 09:28:09;;;;;;;1.42;1.42;;;;;;;1.71;95.53;98822.50;6296825;22;20447;-73
2021/11/12 09:30:35;;;;;;;1.73;1.73;;;;;;;1.76;95.45;98815.47;6325828;22;20046;-72
2021/11/12 09:33:02;;;;;;;1.10;1.10;;;;;;;1.82;95.17;98822.97;6326951;22;20129;-73
2021/11/12 09:35:28;;;;;;;2.05;2.00;;;;;;;1.86;95.24;98815.97;6326877;22;20019;-72
2021/11/12 09:37:54;;;;;;;1.98;1.88;;;;;;;1.97;94.66;98819.81;6328345;22;20098;-71
2021/11/12 09:40:21;;;;;;;1.73;1.70;;;;;;;2.01;94.40;98808.53;6329083;22;20711;-72
2021/11/12 09:42:48;;;;;;;2.15;1.95;;;;;;;2.03;94.63;98808.44;6329192;22;20023;-71
2021/11/12 09:45:15;;;;;;;0.98;0.98;;;;;;;2.09;94.81;98809.06;6330544;22;20370;-72
2021/11/12 09:47:41;;;;;;;2.42;2.33;;;;;;;2.16;94.22;98804.53;6330270;22;20080;-72
2021/11/12 09:50:13;;;;;;;2.72;2.63;;;;;;;2.18;94.27;98791.59;6330651;22;20413;-72
2021/11/12 09:52:41;;;;;;;1.23;1.23;;;;;;;2.22;94.41;98804.31;6329197;22;20469;-71
2021/11/12 09:55:08;;;;;;;1.17;1.17;;;;;;;2.28;94.33;98803.22;6330976;22;20018;-71
2021/11/12 09:57:34;;;;;;;0.47;0.47;;;;;;;2.36;94.18;98801.19;6329916;22;20418;-72
2021/11/12 10:00:02;;;;;;;1.05;1.05;;;;;;;2.43;93.93;98800.06;6332619;22;20022;-72
2021/11/12 10:02:43;;;;;;;1.83;1.73;;;;;;;2.52;93.30;98803.09;6330476;22;20042;-72
2021/11/12 10:05:10;;;;;;;1.45;1.40;;;;;;;2.68;93.03;98787.91;6330334;22;20063;-72
2021/11/12 10:07:38;;;;;;;1.67;1.58;;;;;;;2.75;92.73;98793.66;6329882;22;20014;-72
2021/11/12 10:10:10;;;;;;;1.40;1.40;;;;;;;2.74;92.89;98790.22;6330856;22;20064;-72
2021/11/12 10:12:40;;;;;;;1.52;1.52;;;;;;;2.80;92.38;98787.41;6330834;22;20018;-72
2021/11/12 10:15:12;;;;;;;0.82;0.82;;;;;;;2.81;92.84;98796.81;6330524;22;20018;-73
2021/11/12 10:17:38;;;;;;;2.28;2.13;;;;;;;2.82;92.72;98790.75;6329681;22;20018;-73
2021/11/12 10:20:09;;;;;;;0.60;0.60;;;;;;;2.84;92.63;98796.69;6329651;22;20054;-72
2021/11/12 10:22:38;;;;;;;2.08;1.98;;;;;;;2.89;93.19;98797.31;6330858;22;20015;-74
2021/11/12 10:25:06;;;;;;;0.60;0.60;;;;;;;2.88;92.49;98787.91;6303456;22;20042;-74
2021/11/12 10:27:34;;;;;;;6.20;2.10;;;;;;;2.93;93.13;98787.72;6302911;22;20471;-74
2021/11/12 10:30:09;;;;;;;1.23;1.23;;;;;;;2.96;92.96;98798.75;6333077;22;20343;-74
2021/11/12 10:32:35;;;;;;;1.40;1.40;;;;;;;3.00;92.79;98802.88;6332615;22;20097;-74
2021/11/12 10:35:08;;;;;;;1.05;1.05;;;;;;;3.04;92.18;98790.72;6332651;22;20171;-75
2021/11/12 10:37:37;;;;;;;2.42;2.33;;;;;;;3.05;92.41;98790.63;6330844;22;20015;-75
2021/11/12 10:40:11;;;;;;;0.88;0.88;;;;;;;3.09;92.75;98792.19;6331967;22;20473;-75
2021/11/12 10:42:42;;;;;;;4.20;3.85;;;;;;;3.12;92.01;98784.31;6327411;22;20018;-75
2021/11/12 10:45:10;;;;;;;5.15;3.63;;;;;;;3.19;92.11;98784.06;6329292;22;20022;-75
2021/11/12 10:47:58;;;;;;;0.75;0.75;;;;;;;3.25;92.87;98794.94;6329835;22;20504;-74
2021/11/12 10:50:28;;;;;;;0.85;0.85;;;;;;;3.28;92.66;98793.97;6332156;22;20019;-74
2021/11/12 10:53:10;;;;;;;3.63;3.35;;;;;;;3.39;91.90;98804.69;6329467;22;20026;-74
2021/11/12 10:55:36;;;;;;;;;;;;;;;3.45;91.71;98794.09;6307285;22;20413;-74
2021/11/12 10:58:07;;;;;;;0.85;0.85;;;;;;;3.51;91.23;98784.34;6329209;22;19918;-75
2021/11/12 11:00:39;;;;;;;0.60;0.60;;;;;;;3.55;91.44;98778.16;6330148;22;20379;-76
2021/11/12 11:03:10;;;;;;;1.60;1.60;;;;;;;3.60;91.02;98785.69;6330238;22;20037;-76
2021/11/12 11:05:42;;;;;;;1.10;1.10;;;;;;;3.70;90.79;98766.31;6304769;22;20140;-74
2021/11/12 11:08:14;;;;;;;1.13;1.13;;;;;;;3.78;89.77;98789.22;6330333;22;20014;-75
2021/11/12 11:10:51;;;;;;;1.25;1.25;;;;;;;3.76;90.48;98791.88;6331268;22;20014;-73
2021/11/12 11:13:22;;;;;;;1.58;1.48;;;;;;;3.82;89.98;98785.59;6330441;22;20023;-73
2021/11/12 11:15:52;;;;;;;0.50;0.50;;;;;;;3.84;89.93;98791.50;6332009;22;20042;-74
2021/11/12 11:20:50;;;;;;;1.17;1.17;;;;;;;3.97;89.92;98783.16;6331207;22;20376;-75
2021/11/12 11:23:17;;;;;;;0.68;0.68;;;;;;;3.99;89.75;98801.16;6332047;22;20022;-74
2021/11/12 11:25:52;;;;;;;1.40;1.02;;;;;;;4.08;89.33;98774.91;6304403;22;20038;-76
2021/11/12 11:28:19;;;;;;;0.80;0.80;;;;;;;4.15;88.95;98787.50;6305184;22;20018;-74
2021/11/12 11:30:46;;;;;;;2.88;1.65;;;;;;;4.17;88.91;98788.25;6302711;22;20795;-74
2021/11/12 11:33:12;;;;;;;0.93;0.93;;;;;;;4.26;88.50;98806.78;6329635;22;20080;-76
2021/11/12 11:35:38;;;;;;;3.15;2.95;;;;;;;4.29;89.03;98804.09;6329734;22;20019;-77
2021/11/12 11:38:04;;;;;;;1.77;1.67;;;;;;;4.31;88.01;98794.53;6331926;22;20021;-75
2021/11/12 11:40:32;;;;;;;2.28;2.17;;;;;;;4.46;86.99;98798.94;6329161;22;20099;-73
2021/11/12 11:42:58;;;;;;;0.80;0.80;;;;;;;4.46;87.52;98797.22;6329578;22;20026;-73
2021/11/12 11:45:24;;;;;;;1.35;1.35;;;;;;;4.47;87.41;98798.91;6329621;22;20462;-74
2021/11/12 11:47:50;;;;;;;1.13;1.13;;;;;;;4.48;87.26;98799.75;6331130;22;20060;-73
2021/11/12 11:50:32;;;;;;;1.25;1.15;;;;;;;4.44;86.59;98790.44;6329098;22;20064;-72
2021/11/12 11:53:30;;;;;;;1.75;1.50;;;;;;;4.48;87.42;98807.50;6332011;22;20023;-73
2021/11/12 11:56:23;;;;;;;0.88;0.88;;;;;;;4.49;87.45;98804.81;6328553;22;20014;-73
2021/11/12 11:58:51;;;;;;;0.82;0.82;;;;;;;4.50;86.89;98816.00;6304094;22;20022;-73
2021/11/12 12:01:27;;;;;;;0.73;0.73;;;;;;;4.57;85.81;98812.22;6303035;22;20058;-73
2021/11/12 12:04:05;;;;;;;1.80;1.70;;;;;;;4.60;85.86;98814.66;6328599;22;20065;-74
2021/11/12 12:06:31;;;;;;;0.82;0.82;;;;;;;4.58;86.30;98811.31;6331821;22;20015;-74
2021/11/12 12:09:09;;;;;;;1.50;1.40;;;;;;;4.55;86.38;98830.38;6329719;22;20023;-73
2021/11/12 12:11:35;;;;;;;0.95;0.95;;;;;;;4.52;86.89;98821.91;6331757;22;20375;-74
2021/11/12 12:14:24;;;;;;;0.75;0.75;;;;;;;4.51;87.53;98822.84;6330115;22;20006;-77
2021/11/12 12:17:12;;;;;;;1.15;1.15;;;;;;;4.43;87.74;98824.94;6327180;22;20772;-76
2021/11/12 12:20:09;;;;;;;18.25;0.95;;;;;;;4.44;88.52;98826.63;6329342;22;20056;-75
2021/11/12 13:25:33;;;;;;;0.50;0.50;;;;;;;4.72;85.99;98878.69;6331241;22;20019;-77
2021/11/12 13:28:34;;;;;;;0.47;0.47;;;;;;;4.73;85.72;98880.38;6330354;22;20025;-76
2021/11/12 13:31:09;;;;;;;0.65;0.65;;;;;;;4.69;85.71;98869.34;6302522;22;20019;-76
2021/11/12 13:33:51;;;;;;;0.77;0.77;;;;;;;4.72;85.34;98878.69;6329745;22;20018;-75
2021/11/12 13:36:28;;;;;;;2.88;2.67;;;;;;;4.68;85.52;98871.97;6328287;22;20408;-74
2021/11/12 13:39:07;;;;;;;0.88;0.88;;;;;;;4.65;86.49;98879.88;6258467;22;20029;-74
2021/11/12 13:41:43;;;;;;;0.50;0.50;;;;;;;4.66;85.90;98863.47;6340981;22;20049;-75
2021/11/12 13:44:10;;;;;;;0.70;0.70;;;;;;;4.70;85.70;98870.16;6344400;22;20147;-75
2021/11/12 13:46:45;;;;;;;0.47;0.47;;;;;;;4.66;85.46;98881.56;6346354;22;20021;-75
2021/11/12 13:49:34;;;;;;;0.70;0.70;;;;;;;4.72;84.69;98868.34;6341363;22;20050;-76
2021/11/12 13:52:12;;;;;;;1.13;1.13;;;;;;;4.69;85.17;98873.66;6309166;22;20025;-78
2021/11/12 13:55:05;;;;;;;0.85;0.85;;;;;;;4.84;82.97;98885.88;6332232;22;20025;-77
2021/11/12 13:57:31;;;;;;;0.50;0.50;;;;;;;4.83;83.89;98894.53;6330424;22;20229;-76
2021/11/12 14:00:16;;;;;;;0.50;0.50;;;;;;;4.83;82.83;98906.63;6329332;22;20038;-76
2021/11/12 14:02:55;;;;;;;0.50;0.50;;;;;;;4.89;81.54;98876.16;6327149;22;20018;-77
2021/11/12 14:05:23;;;;;;;0.50;0.50;;;;;;;4.88;82.20;98899.47;6331291;22;20540;-76
2021/11/12 14:08:11;;;;;;;0.82;0.82;;;;;;;4.92;80.83;98912.19;6332747;22;20014;-77
2021/11/12 14:10:46;;;;;;;0.85;0.85;;;;;;;4.97;80.75;98915.41;6308759;22;20026;-74
2021/11/12 14:13:15;;;;;;;0.47;0.47;;;;;;;4.92;80.69;98929.47;6331068;22;20550;-74
2021/11/12 14:15:55;;;;;;;0.60;0.60;;;;;;;4.93;80.33;98926.81;6305212;22;20030;-77
2021/11/12 14:21:23;;;;;;;0.75;0.75;;;;;;;4.92;79.49;98938.06;6330297;22;20366;-73
2021/11/12 14:32:37;;;;;;;0.73;0.73;;;;;;;4.95;78.45;98948.25;6254579;22;20023;-75
2021/11/12 14:37:57;;;;;;;0.40;0.40;;;;;;;4.92;78.42;98955.31;6343648;22;20467;-75
2021/11/12 14:48:04;;;;;;;0.60;0.60;;;;;;;5.01;76.18;98962.63;6330559;22;20040;-72
2021/11/12 14:53:50;;;;;;;4.95;0.63;;;;;;;4.96;76.84;98965.47;6304343;22;20087;-74
2021/11/12 14:56:12;;;;;;;0.40;0.40;;;;;;;4.99;77.25;98977.41;6300589;22;20663;-74
2021/11/12 14:58:44;;;;;;;0.40;0.40;;;;;;;4.93;77.88;98990.63;6330860;22;20022;-75
2021/11/12 15:01:13;;;;;;;0.40;0.40;;;;;;;4.81;79.63;98978.25;6304464;22;20022;-73
2021/11/12 15:03:42;;;;;;;0.40;0.40;;;;;;;4.69;80.94;98977.91;6331491;22;20030;-73
2021/11/12 15:06:09;;;;;;;0.40;0.40;;;;;;;4.66;80.98;98982.34;6329317;22;20010;-75
2021/11/12 15:08:43;;;;;;;0.60;0.60;;;;;;;4.60;81.12;98967.13;6330311;22;20022;-73
2021/11/12 15:11:10;;;;;;;0.60;0.60;;;;;;;4.68;80.90;98970.19;6330175;22;20049;-74
2021/11/12 15:13:38;;;;;;;1.00;1.00;;;;;;;4.63;81.69;98980.75;6332112;22;20014;-73
2021/11/12 15:16:09;;;;;;;0.50;0.50;;;;;;;4.64;81.70;98992.78;6336536;22;20044;-78
2021/11/12 15:18:36;;;;;;;0.50;0.50;;;;;;;4.62;81.90;98996.31;6285318;22;20022;-77
2021/11/12 15:21:05;;;;;;;0.43;0.43;;;;;;;4.65;81.61;98975.50;6338527;22;20026;-77
2021/11/12 15:26:28;;;;;;;0.40;0.40;;;;;;;4.48;83.28;99004.69;6330824;22;20026;-75
2021/11/12 15:31:51;;;;;;;0.50;0.50;;;;;;;4.56;82.39;99001.75;6332829;22;20018;-74
2021/11/12 15:34:18;;;;;;;0.40;0.40;;;;;;;4.54;82.73;99013.94;6330225;22;20069;-74
2021/11/12 15:36:48;;;;;;;1.10;1.10;;;;;;;4.50;83.44;99010.63;6330208;22;20070;-74
2021/11/12 15:39:18;;;;;;;0.45;0.45;;;;;;;4.49;83.66;99000.34;6330991;22;20071;-74
2021/11/12 15:46:44;;;;;;;0.60;0.60;;;;;;;4.54;83.41;99009.59;6330503;22;20511;-75
2021/11/12 15:49:15;;;;;;;0.50;0.50;;;;;;;4.56;82.81;99019.84;6330334;22;20022;-74
2021/11/12 15:51:45;;;;;;;0.40;0.40;;;;;;;4.60;82.47;99003.31;6330945;22;20018;-74
2021/11/12 16:16:21;;;;;;;5.57;1.45;;;;;;;4.57;83.57;99049.97;6330332;22;20018;-76
2021/11/12 16:26:33;;;;;;;0.50;0.50;;;;;;;4.59;82.97;99056.75;6330979;22;20046;-75
2021/11/12 16:31:32;;;;;;;0.70;0.70;;;;;;;4.61;83.87;99054.09;6331199;22;20675;-74
2021/11/12 16:34:03;;;;;;;0.60;0.60;;;;;;;4.62;83.25;99056.59;6331482;22;20092;-74
2021/11/12 16:36:30;;;;;;;0.50;0.50;;;;;;;4.54;84.87;99081.13;6332381;22;20050;-72
2021/11/12 16:38:58;;;;;;;0.50;0.50;;;;;;;4.48;85.01;99066.69;6329518;22;20101;-74
2021/11/12 16:41:29;;;;;;;0.60;0.60;;;;;;;4.49;85.43;99077.88;6329539;22;20019;-74
2021/11/12 16:44:12;;;;;;;0.45;0.45;;;;;;;4.44;85.68;99074.66;6330603;22;20403;-72
2021/11/12 16:49:30;;;;;;;2.90;0.98;;;;;;;4.39;85.44;99080.00;6331138;22;20043;-73
2021/11/12 16:52:05;;;;;;;0.50;0.50;;;;;;;4.41;85.84;99087.72;6329401;22;20036;-74
2021/11/12 17:03:00;;;;;;;0.50;0.50;;;;;;;4.35;86.77;99117.22;6330847;22;20441;-72
2021/11/12 17:08:20;;;;;;;0.60;0.60;;;;;;;4.28;87.97;99104.63;6330853;22;20470;-71
2021/11/12 17:11:04;;;;;;;0.50;0.50;;;;;;;4.28;87.63;99130.47;6331368;22;20015;-71
2021/11/12 17:49:07;;;;;;;1.00;1.00;;;;;;;4.47;83.57;99131.38;6332441;22;20019;-74
2021/11/12 17:51:45;;;;;;;0.65;0.65;;;;;;;4.46;84.14;99145.19;6331755;22;20523;-73
2021/11/12 18:02:29;;;;;;;0.73;0.73;;;;;;;4.44;84.48;99158.19;6332730;22;20092;-73
2021/11/12 21:44:30;;;;;;;0.70;0.70;;;;;;;4.04;90.86;99406.84;6331964;22;20015;-75
2021/11/12 21:46:57;;;;;;;1.23;1.23;;;;;;;4.06;90.28;99410.22;6331351;22;20018;-73
2021/11/12 21:49:23;;;;;;;0.68;0.68;;;;;;;4.08;90.95;99402.44;6331643;22;20395;-73
2021/11/12 21:51:49;;;;;;;0.40;0.40;;;;;;;4.10;90.02;99416.97;6330195;22;20026;-74
2021/11/12 21:54:18;;;;;;;0.88;0.88;;;;;;;4.11;90.06;99413.50;6329690;22;20026;-74
2021/11/12 21:56:44;;;;;;;0.50;0.50;;;;;;;4.17;89.87;99408.09;6328896;22;20046;-74
2021/11/12 21:59:13;;;;;;;0.68;0.68;;;;;;;4.18;90.44;99429.63;6330122;22;20018;-75
2021/11/12 22:01:41;;;;;;;0.47;0.47;;;;;;;4.19;90.11;99421.78;6330218;22;20425;-75